Time;durP1;ratioP1;P1;durP2;ratioP2;P2;SDS_P1;SDS_P2;PMS_P1;PMS_P2;Temp;Humidity;BMP_temperature;BMP_pressure;BME280_temperature;BME280_humidity;BME280_pressure;Samples;Min_cycle;Max_cycle;Signal;HPM_P1;HPM_P2
2023/08/07 00:02:01;;;;;;;0.15;0.10;;;;;;;13.39;100.00;100058.75;5028724;28;20033;-69
2023/08/07 00:04:26;;;;;;;0.10;0.00;;;;;;;13.25;100.00;100053.28;5024514;28;20041;-68
2023/08/07 00:06:51;;;;;;;0.57;0.05;;;;;;;13.20;100.00;100053.00;5022988;28;20572;-69
2023/08/07 00:09:17;;;;;;;0.30;0.05;;;;;;;13.14;100.00;100050.22;5023894;28;20409;-69
2023/08/07 00:11:42;;;;;;;0.45;0.00;;;;;;;13.08;100.00;100053.50;5028740;28;20489;-69
2023/08/07 00:14:08;;;;;;;0.55;0.00;;;;;;;13.11;100.00;100050.56;5028059;28;20037;-69
2023/08/07 00:16:33;;;;;;;0.40;0.00;;;;;;;13.06;100.00;100060.72;5026012;28;20037;-68
2023/08/07 00:18:58;;;;;;;2.35;0.00;;;;;;;12.90;100.00;100065.00;5026648;28;20129;-69
2023/08/07 00:21:24;;;;;;;0.30;0.00;;;;;;;12.80;100.00;100060.97;5026504;28;20029;-70
2023/08/07 00:23:49;;;;;;;0.13;0.00;;;;;;;12.83;100.00;100060.63;5027768;28;20029;-69
2023/08/07 00:26:15;;;;;;;0.05;0.00;;;;;;;12.83;100.00;100058.81;5028313;28;20426;-69
2023/08/07 00:28:41;;;;;;;0.40;0.10;;;;;;;12.87;100.00;100054.88;5032835;28;20049;-69
2023/08/07 00:31:06;;;;;;;0.32;0.10;;;;;;;12.87;100.00;100049.66;5030004;28;20453;-69
2023/08/07 00:33:32;;;;;;;0.13;0.00;;;;;;;12.93;100.00;100048.16;5024764;28;20499;-69
2023/08/07 00:35:57;;;;;;;0.20;0.00;;;;;;;12.96;100.00;100042.59;5023649;28;20515;-69
2023/08/07 00:38:23;;;;;;;0.20;0.00;;;;;;;13.02;100.00;100049.78;5028750;28;20045;-69
2023/08/07 00:40:48;;;;;;;2.13;0.00;;;;;;;13.02;100.00;100046.34;5030491;28;20045;-69
2023/08/07 00:43:13;;;;;;;0.20;0.00;;;;;;;12.96;100.00;100053.06;5028815;28;20030;-69
2023/08/07 00:45:44;;;;;;;0.55;0.00;;;;;;;13.03;100.00;100056.63;5030910;28;20034;-69
2023/08/07 00:48:12;;;;;;;0.10;0.00;;;;;;;13.04;100.00;100045.19;5030262;28;20029;-69
2023/08/07 00:50:39;;;;;;;0.30;0.00;;;;;;;12.98;100.00;100048.47;5025061;28;20394;-68
2023/08/07 00:53:06;;;;;;;1.10;0.00;;;;;;;13.04;100.00;100052.22;5027103;28;20444;-69
2023/08/07 00:55:31;;;;;;;0.10;0.00;;;;;;;13.05;100.00;100044.22;5026883;28;20048;-69
2023/08/07 00:57:58;;;;;;;0.30;0.00;;;;;;;13.07;100.00;100046.66;5027742;28;20157;-69
2023/08/07 01:00:24;;;;;;;0.38;0.32;;;;;;;13.03;100.00;100042.75;5026026;28;20044;-69
2023/08/07 01:02:52;;;;;;;0.10;0.00;;;;;;;13.02;100.00;100043.72;5031417;28;20116;-69
2023/08/07 01:05:19;;;;;;;0.22;0.00;;;;;;;13.04;100.00;100041.75;5025845;28;20025;-69
2023/08/07 01:07:46;;;;;;;0.00;0.00;;;;;;;13.13;100.00;100040.75;5027167;28;20116;-69
2023/08/07 01:10:12;;;;;;;3.20;0.00;;;;;;;13.25;100.00;100040.19;5029655;28;20022;-69
2023/08/07 01:12:45;;;;;;;2.92;0.00;;;;;;;13.34;100.00;100051.44;5030087;28;20041;-69
2023/08/07 01:15:19;;;;;;;0.13;0.00;;;;;;;13.41;100.00;100047.13;5029018;28;20439;-69
2023/08/07 01:17:46;;;;;;;0.38;0.00;;;;;;;13.51;100.00;100054.78;5020409;28;20069;-69
2023/08/07 01:20:14;;;;;;;0.05;0.00;;;;;;;13.57;100.00;100061.94;5025589;28;20516;-68
2023/08/07 01:22:39;;;;;;;0.00;0.00;;;;;;;13.56;100.00;100053.28;5027765;28;20030;-69
2023/08/07 01:25:05;;;;;;;0.00;0.00;;;;;;;13.53;100.00;100058.84;5024924;28;20034;-69
2023/08/07 01:27:34;;;;;;;0.20;0.00;;;;;;;13.49;100.00;100056.75;5029044;28;20128;-69
2023/08/07 01:30:06;;;;;;;0.52;0.00;;;;;;;13.45;100.00;100056.28;5028333;28;20037;-69
2023/08/07 01:32:49;;;;;;;0.57;0.00;;;;;;;13.43;100.00;100055.63;5044327;28;20450;-69
2023/08/07 01:35:18;;;;;;;0.30;0.00;;;;;;;13.49;100.00;100051.50;5026274;28;20108;-69
2023/08/07 01:37:45;;;;;;;1.23;0.00;;;;;;;13.52;100.00;100051.16;5024354;28;20026;-69
2023/08/07 01:40:12;;;;;;;0.50;0.00;;;;;;;13.55;100.00;100054.25;5023302;28;20032;-68
2023/08/07 01:42:38;;;;;;;1.23;0.00;;;;;;;13.59;100.00;100055.53;5028247;28;20459;-69
2023/08/07 01:45:06;;;;;;;0.30;0.00;;;;;;;13.58;100.00;100056.53;5025995;28;20063;-68
2023/08/07 01:47:32;;;;;;;0.60;0.40;;;;;;;13.59;100.00;100065.19;5027788;28;20061;-69
2023/08/07 01:49:57;;;;;;;0.10;0.00;;;;;;;13.54;100.00;100057.84;5024630;28;20116;-69
2023/08/07 01:52:23;;;;;;;0.30;0.00;;;;;;;13.53;100.00;100058.84;5027661;28;20027;-69
2023/08/07 01:54:48;;;;;;;1.42;0.00;;;;;;;13.52;100.00;100056.41;5025022;28;20603;-69
2023/08/07 01:57:13;;;;;;;0.20;0.00;;;;;;;13.52;100.00;100053.78;5027665;28;20014;-69
2023/08/07 01:59:39;;;;;;;1.17;0.00;;;;;;;13.51;100.00;100060.81;5028833;28;20056;-68
2023/08/07 02:02:04;;;;;;;0.40;0.00;;;;;;;13.46;100.00;100052.66;5022054;28;20029;-68
2023/08/07 02:04:30;;;;;;;0.35;0.00;;;;;;;13.42;100.00;100058.41;5027522;28;20084;-68
2023/08/07 02:06:55;;;;;;;0.22;0.00;;;;;;;13.38;100.00;100055.34;5022935;28;20493;-68
2023/08/07 02:09:21;;;;;;;2.42;0.00;;;;;;;13.34;100.00;100059.28;5027821;28;20021;-69
2023/08/07 02:11:47;;;;;;;0.10;0.00;;;;;;;13.34;100.00;100061.91;5025017;28;20110;-69
2023/08/07 02:14:12;;;;;;;0.43;0.00;;;;;;;13.36;100.00;100062.53;5030464;28;20099;-68
2023/08/07 02:16:38;;;;;;;1.25;0.10;;;;;;;13.38;100.00;100073.66;5027222;28;20033;-68
2023/08/07 02:19:03;;;;;;;0.20;0.00;;;;;;;13.36;100.00;100078.25;5022090;28;20133;-69
2023/08/07 02:21:28;;;;;;;0.00;0.00;;;;;;;13.34;100.00;100080.22;5029184;28;20462;-69
2023/08/07 02:23:54;;;;;;;1.05;0.00;;;;;;;13.36;100.00;100072.19;5025937;28;20033;-69
2023/08/07 02:26:19;;;;;;;0.10;0.00;;;;;;;13.39;100.00;100075.28;5026785;28;20037;-69
2023/08/07 02:28:44;;;;;;;0.20;0.00;;;;;;;13.41;100.00;100075.94;5024214;28;20033;-68
2023/08/07 02:31:10;;;;;;;0.10;0.00;;;;;;;13.49;100.00;100075.88;5028724;28;20120;-69
2023/08/07 02:33:35;;;;;;;0.10;0.00;;;;;;;13.52;100.00;100075.53;5023912;28;20037;-69
2023/08/07 02:36:01;;;;;;;0.00;0.00;;;;;;;13.48;100.00;100071.63;5028356;28;20496;-69
2023/08/07 02:38:26;;;;;;;2.28;0.00;;;;;;;13.42;100.00;100072.31;5026022;28;20025;-69
2023/08/07 02:40:51;;;;;;;1.38;0.00;;;;;;;13.39;100.00;100070.03;5024077;28;20155;-69
2023/08/07 02:43:17;;;;;;;0.00;0.00;;;;;;;13.35;100.00;100065.31;5028087;28;20032;-69
2023/08/07 02:45:42;;;;;;;0.30;0.10;;;;;;;13.38;100.00;100060.56;5026128;28;20038;-69
2023/08/07 02:48:08;;;;;;;1.85;0.00;;;;;;;13.43;100.00;100045.16;5028037;28;20088;-69
2023/08/07 02:50:33;;;;;;;1.85;0.00;;;;;;;13.49;100.00;100062.81;5027605;28;20053;-68
2023/08/07 02:53:00;;;;;;;0.10;0.00;;;;;;;13.47;100.00;100062.16;5026230;28;20560;-69
2023/08/07 02:55:25;;;;;;;0.90;0.00;;;;;;;13.47;100.00;100066.56;5027169;28;20048;-69
2023/08/07 02:57:51;;;;;;;0.25;0.00;;;;;;;13.47;100.00;100070.00;5023895;28;20030;-69
2023/08/07 03:00:16;;;;;;;0.00;0.00;;;;;;;13.41;100.00;100065.47;5028899;28;20029;-69
2023/08/07 03:02:41;;;;;;;0.65;0.00;;;;;;;13.35;100.00;100066.13;5027259;28;20033;-69
2023/08/07 03:05:08;;;;;;;0.30;0.10;;;;;;;13.28;100.00;100070.44;5022227;28;20029;-69
2023/08/07 03:07:33;;;;;;;0.10;0.00;;;;;;;13.26;100.00;100078.44;5027286;28;20038;-69
2023/08/07 03:09:59;;;;;;;0.10;0.00;;;;;;;13.16;100.00;100072.63;5026124;28;20384;-69
2023/08/07 03:12:24;;;;;;;0.10;0.00;;;;;;;13.14;100.00;100068.53;5026028;28;20386;-69
2023/08/07 03:14:50;;;;;;;0.10;0.00;;;;;;;13.10;100.00;100068.03;5029397;28;20413;-69
2023/08/07 03:17:15;;;;;;;0.10;0.00;;;;;;;13.11;100.00;100063.63;5025857;28;20046;-69
2023/08/07 03:19:43;;;;;;;0.20;0.20;;;;;;;13.21;100.00;100069.50;5024141;28;20041;-69
2023/08/07 03:22:08;;;;;;;0.50;0.00;;;;;;;13.32;100.00;100066.47;5027727;28;20034;-69
2023/08/07 03:24:34;;;;;;;0.73;0.10;;;;;;;13.38;100.00;100065.81;5024164;28;20312;-70
2023/08/07 03:26:59;;;;;;;0.28;0.00;;;;;;;13.43;100.00;100066.09;5027293;28;20060;-69
2023/08/07 03:29:24;;;;;;;1.02;0.00;;;;;;;13.48;100.00;100069.03;5029403;28;20408;-69
2023/08/07 03:31:50;;;;;;;0.10;0.00;;;;;;;13.50;100.00;100063.63;5026616;28;20066;-69
2023/08/07 03:34:15;;;;;;;0.10;0.00;;;;;;;13.42;100.00;100072.31;5022676;28;20037;-69
2023/08/07 03:36:41;;;;;;;0.13;0.00;;;;;;;13.31;100.00;100077.13;5026502;28;20029;-68
2023/08/07 03:39:06;;;;;;;0.10;0.00;;;;;;;13.10;100.00;100080.31;5024102;28;20034;-68
2023/08/07 03:41:32;;;;;;;0.20;0.00;;;;;;;13.00;100.00;100075.28;5025765;28;20049;-69
2023/08/07 03:43:57;;;;;;;0.17;0.00;;;;;;;12.98;100.00;100073.81;5028976;28;20409;-69
2023/08/07 03:46:23;;;;;;;0.55;0.05;;;;;;;13.00;100.00;100085.75;5024300;28;20452;-69
2023/08/07 03:48:48;;;;;;;1.60;0.00;;;;;;;13.05;100.00;100087.84;5025352;28;20033;-68
2023/08/07 03:51:16;;;;;;;0.20;0.10;;;;;;;13.09;100.00;100086.53;5027776;28;20059;-69
2023/08/07 03:53:42;;;;;;;1.30;0.10;;;;;;;13.08;100.00;100087.50;5028574;28;20045;-69
2023/08/07 03:56:07;;;;;;;0.00;0.00;;;;;;;13.03;100.00;100082.78;5023169;28;20017;-69
2023/08/07 03:58:33;;;;;;;0.63;0.00;;;;;;;13.03;100.00;100084.59;5026056;28;20120;-69
2023/08/07 04:00:58;;;;;;;2.25;0.00;;;;;;;13.04;100.00;100091.44;5028299;28;20037;-69
2023/08/07 04:03:23;;;;;;;0.20;0.10;;;;;;;13.05;100.00;100087.84;5030396;28;20432;-69
2023/08/07 04:05:53;;;;;;;0.20;0.00;;;;;;;13.13;100.00;100093.88;5030818;28;20482;-69
2023/08/07 04:08:19;;;;;;;0.10;0.00;;;;;;;13.22;100.00;100095.50;5032994;28;20025;-69
2023/08/07 04:10:45;;;;;;;3.08;0.00;;;;;;;13.25;100.00;100095.13;5025505;28;20405;-69
2023/08/07 04:13:10;;;;;;;0.43;0.43;;;;;;;13.07;100.00;100102.38;5030803;28;20033;-69
2023/08/07 04:15:35;;;;;;;0.40;0.10;;;;;;;12.86;100.00;100089.88;5028486;28;20037;-69
2023/08/07 04:18:01;;;;;;;0.10;0.00;;;;;;;12.72;100.00;100090.59;5028066;28;20193;-69
2023/08/07 04:20:26;;;;;;;0.13;0.00;;;;;;;12.75;100.00;100090.25;5027526;28;20052;-69
2023/08/07 04:22:52;;;;;;;0.57;0.10;;;;;;;13.03;100.00;100095.03;5031097;28;20021;-69
2023/08/07 04:25:17;;;;;;;0.38;0.00;;;;;;;13.27;100.00;100100.19;5028940;28;20029;-68
2023/08/07 04:27:43;;;;;;;6.93;0.30;;;;;;;13.31;100.00;100111.94;5029855;28;20034;-69
2023/08/07 04:30:08;;;;;;;0.25;0.00;;;;;;;13.28;100.00;100104.44;5027496;28;20099;-69
2023/08/07 04:32:34;;;;;;;0.52;0.00;;;;;;;13.25;100.00;100107.41;5029106;28;20367;-69
2023/08/07 04:34:59;;;;;;;0.00;0.00;;;;;;;13.22;100.00;100102.53;5027489;28;20041;-69
2023/08/07 04:37:25;;;;;;;0.17;0.00;;;;;;;13.25;100.00;100099.53;5025778;28;20109;-69
2023/08/07 04:39:50;;;;;;;1.00;0.00;;;;;;;13.27;100.00;100094.97;5030395;28;20039;-69
2023/08/07 04:42:15;;;;;;;0.20;0.00;;;;;;;13.32;100.00;100097.88;5027517;28;20436;-69
2023/08/07 04:44:41;;;;;;;0.17;0.00;;;;;;;13.33;100.00;100094.28;5032605;28;20032;-69
2023/08/07 04:47:07;;;;;;;0.40;0.10;;;;;;;13.32;100.00;100095.25;5030384;28;20469;-69
2023/08/07 04:49:32;;;;;;;0.60;0.00;;;;;;;13.40;100.00;100097.03;5025458;28;20485;-70
2023/08/07 04:51:57;;;;;;;2.67;0.00;;;;;;;13.45;100.00;100097.34;5025966;28;20073;-69
2023/08/07 04:54:23;;;;;;;0.95;0.08;;;;;;;13.56;100.00;100100.38;5032210;28;20068;-69
2023/08/07 04:56:48;;;;;;;0.20;0.00;;;;;;;13.63;100.00;100099.69;5027559;28;20052;-69
2023/08/07 04:59:14;;;;;;;1.20;0.00;;;;;;;13.59;100.00;100097.41;5030147;28;20338;-69
2023/08/07 05:01:39;;;;;;;0.10;0.00;;;;;;;13.51;100.00;100096.66;5027709;28;20041;-68
2023/08/07 05:04:05;;;;;;;0.00;0.00;;;;;;;13.47;100.00;100104.03;5024548;28;20045;-69
2023/08/07 05:06:31;;;;;;;1.52;0.00;;;;;;;13.54;100.00;100106.78;5029735;28;20041;-69
2023/08/07 05:08:56;;;;;;;0.10;0.00;;;;;;;13.58;100.00;100102.81;5031496;28;20033;-69
2023/08/07 05:11:22;;;;;;;0.32;0.10;;;;;;;13.64;100.00;100104.75;5025711;28;20033;-68
2023/08/07 05:13:47;;;;;;;0.20;0.00;;;;;;;13.75;100.00;100103.53;5030549;28;20025;-69
2023/08/07 05:16:13;;;;;;;0.10;0.00;;;;;;;13.97;100.00;100100.09;5029331;28;20033;-69
2023/08/07 05:18:38;;;;;;;1.23;0.10;;;;;;;14.06;100.00;100106.09;5027087;28;20057;-69
2023/08/07 05:21:04;;;;;;;0.20;0.05;;;;;;;14.01;100.00;100098.78;5029101;28;20151;-69
2023/08/07 05:23:29;;;;;;;0.00;0.00;;;;;;;13.93;100.00;100098.81;5025760;28;20071;-69
2023/08/07 05:25:55;;;;;;;0.22;0.00;;;;;;;13.89;100.00;100092.31;5026765;28;20033;-69
2023/08/07 05:28:20;;;;;;;1.58;0.00;;;;;;;13.93;100.00;100098.81;5028232;28;20106;-69
2023/08/07 05:30:45;;;;;;;0.35;0.00;;;;;;;13.97;100.00;100105.34;5023570;28;20034;-69
2023/08/07 05:33:11;;;;;;;0.43;0.05;;;;;;;14.05;100.00;100107.91;5025996;28;20370;-69
2023/08/07 05:35:38;;;;;;;0.30;0.00;;;;;;;14.09;100.00;100114.44;5027982;28;20604;-69
2023/08/07 05:38:04;;;;;;;0.00;0.00;;;;;;;14.19;100.00;100109.72;5030076;28;20060;-69
2023/08/07 05:40:29;;;;;;;0.17;0.00;;;;;;;14.27;100.00;100109.66;5029745;28;20049;-68
2023/08/07 05:42:55;;;;;;;0.20;0.00;;;;;;;14.36;100.00;100109.59;5027129;28;20033;-68
2023/08/07 05:45:21;;;;;;;0.70;0.00;;;;;;;14.27;100.00;100114.91;5029438;28;20550;-68
2023/08/07 05:47:46;;;;;;;0.10;0.00;;;;;;;14.23;100.00;100113.63;5027284;28;20038;-69
2023/08/07 05:50:11;;;;;;;3.08;0.00;;;;;;;14.18;100.00;100120.38;5028263;28;20409;-68
2023/08/07 05:52:37;;;;;;;0.20;0.00;;;;;;;14.28;100.00;100120.97;5028752;28;20116;-68
2023/08/07 05:55:03;;;;;;;2.70;0.00;;;;;;;14.34;100.00;100124.69;5027112;28;20033;-68
2023/08/07 05:57:29;;;;;;;0.13;0.00;;;;;;;14.48;100.00;100122.16;5026901;28;20032;-68
2023/08/07 05:59:54;;;;;;;0.22;0.00;;;;;;;14.64;100.00;100121.19;5025051;28;20038;-69
2023/08/07 06:02:20;;;;;;;7.32;0.00;;;;;;;14.72;100.00;100113.22;5023709;28;20025;-69
2023/08/07 06:04:45;;;;;;;0.15;0.00;;;;;;;14.82;100.00;100118.19;5025881;28;20041;-68
2023/08/07 06:07:11;;;;;;;2.65;0.10;;;;;;;14.93;100.00;100123.00;5028025;28;20034;-68
2023/08/07 06:09:36;;;;;;;0.80;0.00;;;;;;;15.02;100.00;100123.72;5029413;28;20052;-69
2023/08/07 06:12:02;;;;;;;0.22;0.00;;;;;;;15.05;100.00;100118.13;5025948;28;20036;-67
2023/08/07 06:14:28;;;;;;;2.10;0.10;;;;;;;15.19;100.00;100122.53;5015345;28;20102;-67
2023/08/07 06:16:53;;;;;;;0.22;0.00;;;;;;;15.35;100.00;100119.69;5017755;28;20053;-69
2023/08/07 06:19:20;;;;;;;0.82;0.00;;;;;;;15.41;100.00;100118.97;5023242;28;20040;-68
2023/08/07 06:21:45;;;;;;;0.00;0.00;;;;;;;15.49;100.00;100121.50;5024769;28;21239;-69
2023/08/07 06:24:12;;;;;;;0.73;0.08;;;;;;;15.57;100.00;100118.78;5022597;28;20412;-69
2023/08/07 06:26:37;;;;;;;1.48;0.00;;;;;;;15.73;100.00;100124.78;5029174;28;20052;-68
2023/08/07 06:29:03;;;;;;;0.43;0.00;;;;;;;15.97;100.00;100116.56;5025244;28;20037;-69
2023/08/07 06:31:28;;;;;;;0.17;0.00;;;;;;;16.01;100.00;100125.69;5024074;28;20102;-68
2023/08/07 06:33:54;;;;;;;0.52;0.00;;;;;;;16.02;100.00;100127.31;5019506;28;20021;-69
2023/08/07 06:36:19;;;;;;;1.80;0.00;;;;;;;16.02;100.00;100124.69;5028169;28;20088;-68
2023/08/07 06:38:44;;;;;;;3.42;0.00;;;;;;;16.07;100.00;100130.19;5028041;28;20041;-69
2023/08/07 06:41:10;;;;;;;0.20;0.00;;;;;;;16.12;100.00;100129.63;5026328;28;20033;-69
2023/08/07 06:43:35;;;;;;;0.17;0.00;;;;;;;16.23;100.00;100126.47;5025279;28;20503;-69
2023/08/07 06:46:01;;;;;;;0.50;0.00;;;;;;;16.34;100.00;100125.16;5021741;28;20474;-69
2023/08/07 06:48:26;;;;;;;1.13;0.00;;;;;;;16.41;100.00;100126.03;5027154;28;20041;-69
2023/08/07 06:50:52;;;;;;;0.08;0.00;;;;;;;16.49;100.00;100123.28;5025338;28;20037;-69
2023/08/07 06:53:18;;;;;;;0.10;0.00;;;;;;;16.60;100.00;100120.09;5023828;28;20049;-69
2023/08/07 06:55:43;;;;;;;0.17;0.00;;;;;;;16.73;100.00;100125.47;5025746;28;20037;-69
2023/08/07 06:58:09;;;;;;;0.20;0.00;;;;;;;16.86;100.00;100124.75;5024603;28;20025;-69
2023/08/07 07:00:35;;;;;;;0.30;0.00;;;;;;;16.91;100.00;100120.53;5025177;28;20041;-69
2023/08/07 07:03:02;;;;;;;0.75;0.00;;;;;;;17.03;100.00;100119.97;5021841;28;20030;-69
2023/08/07 07:05:27;;;;;;;0.28;0.00;;;;;;;17.11;100.00;100128.53;5026529;28;20032;-69
2023/08/07 07:07:54;;;;;;;0.20;0.00;;;;;;;17.21;99.67;100134.25;5016955;28;20033;-68
2023/08/07 07:10:20;;;;;;;1.10;0.00;;;;;;;17.24;99.65;100140.94;5025854;28;20127;-69
2023/08/07 07:12:45;;;;;;;0.00;0.00;;;;;;;17.24;100.00;100127.78;5022854;28;20069;-69
2023/08/07 07:15:11;;;;;;;0.20;0.00;;;;;;;17.38;100.00;100136.56;5024203;28;20153;-69
2023/08/07 07:17:36;;;;;;;0.00;0.00;;;;;;;17.59;98.07;100149.56;5024368;28;20133;-68
2023/08/07 07:20:02;;;;;;;0.57;0.47;;;;;;;17.60;95.17;100148.56;5027246;28;20110;-68
2023/08/07 07:22:28;;;;;;;0.70;0.00;;;;;;;17.49;98.11;100142.03;5020374;28;20026;-69
2023/08/07 07:24:54;;;;;;;0.43;0.00;;;;;;;17.33;100.00;100147.66;5023829;28;20428;-69
2023/08/07 07:27:19;;;;;;;0.35;0.00;;;;;;;17.47;98.87;100154.63;5022547;28;20092;-69
2023/08/07 07:29:45;;;;;;;0.47;0.00;;;;;;;17.61;98.59;100144.13;5018948;28;20038;-69
2023/08/07 07:32:10;;;;;;;0.10;0.00;;;;;;;17.60;99.03;100153.84;5023417;28;20033;-69
2023/08/07 07:34:36;;;;;;;0.00;0.00;;;;;;;17.74;99.17;100166.09;5024711;28;20034;-69
2023/08/07 07:37:01;;;;;;;0.30;0.00;;;;;;;18.02;97.04;100160.66;5029763;28;20473;-69
2023/08/07 07:39:26;;;;;;;0.20;0.00;;;;;;;18.14;96.76;100161.69;5030236;28;20499;-68
2023/08/07 07:41:52;;;;;;;0.20;0.00;;;;;;;18.31;96.94;100167.41;5031593;28;20041;-68
2023/08/07 07:44:17;;;;;;;0.00;0.00;;;;;;;18.42;97.03;100177.34;5029542;28;20037;-69
2023/08/07 07:46:43;;;;;;;0.88;0.00;;;;;;;18.55;94.30;100173.88;5029549;28;20033;-69
2023/08/07 07:49:08;;;;;;;1.30;0.00;;;;;;;18.59;94.24;100175.09;5027817;28;20393;-69
2023/08/07 07:51:35;;;;;;;0.20;0.00;;;;;;;18.57;95.07;100171.84;5031172;28;20112;-69
2023/08/07 07:54:01;;;;;;;3.75;0.00;;;;;;;18.64;94.52;100174.53;5031370;28;20056;-69
2023/08/07 07:56:26;;;;;;;0.10;0.00;;;;;;;18.74;94.08;100173.09;5029372;28;20071;-68
2023/08/07 07:58:52;;;;;;;1.17;0.00;;;;;;;18.73;93.24;100179.41;5024642;28;20025;-69
2023/08/07 08:01:18;;;;;;;0.20;0.00;;;;;;;18.94;93.54;100177.53;5028009;28;20029;-69
2023/08/07 08:03:43;;;;;;;1.70;0.00;;;;;;;19.03;91.71;100178.94;5023800;28;20069;-68
2023/08/07 08:06:10;;;;;;;2.40;0.00;;;;;;;19.11;90.61;100187.44;5029748;28;20025;-69
2023/08/07 08:08:36;;;;;;;1.17;0.00;;;;;;;19.31;90.98;100178.69;5021361;28;20044;-69
2023/08/07 08:11:01;;;;;;;0.00;0.00;;;;;;;19.48;89.19;100191.19;5022534;28;20116;-69
2023/08/07 08:13:27;;;;;;;1.50;0.00;;;;;;;19.60;87.67;100182.66;5028209;28;20381;-68
2023/08/07 08:15:52;;;;;;;0.82;0.00;;;;;;;19.47;89.04;100194.84;5023454;28;20040;-68
2023/08/07 08:18:17;;;;;;;1.17;0.00;;;;;;;19.53;89.01;100180.84;5025703;28;20037;-68
2023/08/07 08:20:43;;;;;;;0.00;0.00;;;;;;;19.83;88.07;100181.13;5028538;28;20083;-69
2023/08/07 08:23:08;;;;;;;1.13;0.00;;;;;;;20.06;87.00;100183.22;5030134;28;20025;-68
2023/08/07 08:25:34;;;;;;;2.05;0.00;;;;;;;20.23;87.24;100188.81;5026008;28;20065;-68
2023/08/07 08:28:00;;;;;;;0.20;0.00;;;;;;;20.25;87.53;100185.94;5030738;28;20047;-69
2023/08/07 08:30:26;;;;;;;0.10;0.00;;;;;;;20.42;87.75;100185.22;5025608;28;20029;-69
2023/08/07 08:32:51;;;;;;;1.35;0.00;;;;;;;20.59;86.58;100188.16;5026629;28;20374;-69
2023/08/07 08:35:16;;;;;;;0.03;0.00;;;;;;;20.60;87.27;100197.72;5031468;28;20032;-68
2023/08/07 08:37:42;;;;;;;0.32;0.00;;;;;;;20.72;86.72;100192.53;5029833;28;20026;-68
2023/08/07 08:40:11;;;;;;;1.40;0.05;;;;;;;20.84;85.92;100191.56;5030300;28;20036;-68
2023/08/07 08:42:40;;;;;;;0.20;0.00;;;;;;;20.89;83.89;100196.22;5028758;28;20543;-68
2023/08/07 08:45:08;;;;;;;0.20;0.00;;;;;;;20.98;84.66;100194.09;5026083;28;20162;-68
2023/08/07 08:47:36;;;;;;;1.45;0.00;;;;;;;20.93;84.44;100193.94;5027855;28;20073;-68
2023/08/07 08:50:07;;;;;;;0.90;0.00;;;;;;;21.09;85.35;100198.69;5029965;28;20037;-68
2023/08/07 08:52:35;;;;;;;0.90;0.00;;;;;;;21.28;85.19;100196.84;5026982;28;20033;-69
2023/08/07 08:55:01;;;;;;;0.20;0.00;;;;;;;21.24;83.84;100190.41;5030801;28;20087;-68
2023/08/07 08:57:27;;;;;;;0.52;0.00;;;;;;;21.20;86.09;100195.31;5028160;28;20041;-68
2023/08/07 08:59:53;;;;;;;3.70;0.00;;;;;;;21.27;84.89;100195.28;5023312;28;20067;-68
2023/08/07 09:02:19;;;;;;;0.43;0.00;;;;;;;21.24;83.23;100199.16;5027919;28;20053;-68
2023/08/07 09:04:45;;;;;;;0.00;0.00;;;;;;;21.42;82.62;100195.69;5027498;28;20055;-68
2023/08/07 09:07:13;;;;;;;0.10;0.00;;;;;;;21.39;81.70;100199.59;5025190;28;20033;-68
2023/08/07 09:09:40;;;;;;;0.73;0.00;;;;;;;21.36;82.30;100200.03;5027419;28;20021;-68
2023/08/07 09:12:15;;;;;;;0.40;0.00;;;;;;;21.48;80.99;100203.56;5029046;28;20041;-69
2023/08/07 09:14:44;;;;;;;1.00;0.00;;;;;;;21.45;80.90;100204.00;5026304;28;20029;-68
2023/08/07 09:17:10;;;;;;;0.20;0.00;;;;;;;21.31;79.36;100202.53;5023183;28;20038;-68
2023/08/07 09:19:35;;;;;;;0.00;0.00;;;;;;;21.38;79.24;100205.91;5023447;28;20038;-68
2023/08/07 09:22:01;;;;;;;0.08;0.00;;;;;;;21.34;78.42;100198.63;5028466;28;20040;-68
2023/08/07 09:24:26;;;;;;;0.30;0.00;;;;;;;21.31;78.09;100205.19;5028342;28;20033;-68
2023/08/07 09:26:55;;;;;;;0.40;0.00;;;;;;;21.44;78.15;100202.38;5027287;28;20049;-69
2023/08/07 09:29:22;;;;;;;0.10;0.00;;;;;;;21.71;78.37;100202.09;5028265;28;20366;-68
2023/08/07 09:31:47;;;;;;;0.10;0.00;;;;;;;21.82;79.72;100202.09;5028662;28;20128;-68
2023/08/07 09:34:16;;;;;;;0.17;0.00;;;;;;;21.90;79.78;100201.00;5027598;28;20481;-68
2023/08/07 09:36:42;;;;;;;0.20;0.00;;;;;;;21.85;79.28;100209.63;5027561;28;20487;-68
2023/08/07 09:39:07;;;;;;;0.10;0.00;;;;;;;21.62;79.60;100209.53;5025195;28;21193;-68
2023/08/07 09:41:35;;;;;;;1.20;0.00;;;;;;;21.77;80.54;100215.22;5020101;28;20033;-68
2023/08/07 09:44:06;;;;;;;0.10;0.00;;;;;;;21.90;80.55;100208.94;5043955;28;20425;-68
2023/08/07 09:46:37;;;;;;;0.70;0.00;;;;;;;22.01;80.66;100210.88;5028904;28;20030;-68
2023/08/07 09:49:02;;;;;;;1.55;0.00;;;;;;;21.99;80.50;100215.56;5028294;28;20052;-68
2023/08/07 09:51:41;;;;;;;1.10;0.00;;;;;;;21.91;73.99;100213.22;5029484;28;20033;-66
2023/08/07 09:54:06;;;;;;;0.13;0.00;;;;;;;21.78;80.04;100213.38;5027699;28;20084;-67
2023/08/07 09:56:32;;;;;;;0.35;0.00;;;;;;;21.80;80.01;100212.13;5027498;28;20102;-68
2023/08/07 09:58:58;;;;;;;0.00;0.00;;;;;;;21.88;79.23;100218.97;5027261;28;20048;-68
2023/08/07 10:01:25;;;;;;;0.03;0.00;;;;;;;21.85;77.78;100214.91;5025613;28;20030;-68
2023/08/07 10:03:51;;;;;;;0.25;0.00;;;;;;;21.80;76.26;100216.63;5026761;28;20041;-68
2023/08/07 10:06:18;;;;;;;0.10;0.00;;;;;;;21.78;77.45;100216.84;5028922;28;20129;-68
2023/08/07 10:08:45;;;;;;;0.10;0.00;;;;;;;21.88;76.91;100221.63;5033349;28;20041;-68
2023/08/07 10:11:11;;;;;;;0.10;0.00;;;;;;;21.92;75.84;100220.13;5028074;28;20013;-68
2023/08/07 10:13:38;;;;;;;0.00;0.00;;;;;;;21.69;75.58;100217.41;5028330;28;20037;-68
2023/08/07 10:16:04;;;;;;;0.00;0.00;;;;;;;21.67;75.28;100214.97;5028849;28;20032;-68
2023/08/07 10:18:30;;;;;;;0.68;0.00;;;;;;;21.65;74.30;100209.06;5029065;28;20053;-68
2023/08/07 10:20:57;;;;;;;0.05;0.00;;;;;;;21.86;75.14;100221.03;5028610;28;20346;-68
2023/08/07 10:23:23;;;;;;;0.08;0.00;;;;;;;22.01;75.20;100221.47;5030312;28;20028;-68
2023/08/07 10:25:51;;;;;;;0.00;0.00;;;;;;;22.06;73.16;100220.81;5029591;28;20037;-68
2023/08/07 10:28:19;;;;;;;0.10;0.00;;;;;;;22.06;72.67;100226.91;5030204;28;20025;-68
2023/08/07 10:30:44;;;;;;;0.10;0.00;;;;;;;22.07;72.08;100222.44;5029060;28;20095;-69
2023/08/07 10:33:12;;;;;;;0.00;0.00;;;;;;;21.98;71.89;100223.75;5028730;28;20053;-68
2023/08/07 10:35:45;;;;;;;0.00;0.00;;;;;;;21.86;69.41;100226.34;5024723;28;20042;-68
2023/08/07 10:38:10;;;;;;;0.00;0.00;;;;;;;21.91;72.52;100229.13;5027490;28;20380;-68
2023/08/07 10:41:01;;;;;;;0.00;0.00;;;;;;;21.99;69.90;100225.34;5020633;28;20152;-67
2023/08/07 10:43:27;;;;;;;0.35;0.00;;;;;;;21.99;73.51;100226.16;5020132;28;20481;-68
2023/08/07 10:45:53;;;;;;;1.45;0.00;;;;;;;22.19;72.75;100225.94;5025455;28;20045;-67
2023/08/07 10:48:21;;;;;;;0.00;0.00;;;;;;;22.03;72.17;100227.38;5023369;28;20071;-68
2023/08/07 10:50:57;;;;;;;0.95;0.00;;;;;;;21.79;69.29;100221.13;5024933;28;20559;-68
2023/08/07 10:53:28;;;;;;;0.28;0.00;;;;;;;21.78;68.85;100214.19;5025979;28;20029;-67
2023/08/07 10:55:57;;;;;;;0.00;0.00;;;;;;;21.83;71.93;100219.63;5020300;28;20044;-68
2023/08/07 10:58:29;;;;;;;0.10;0.00;;;;;;;21.73;71.87;100215.94;5021069;28;20057;-68
2023/08/07 11:01:40;;;;;;;0.00;0.00;;;;;;;21.85;70.05;100214.91;5023523;28;20060;-69
2023/08/07 11:04:11;;;;;;;0.05;0.00;;;;;;;22.03;73.13;100216.75;4998176;28;20045;-69
2023/08/07 11:06:38;;;;;;;0.10;0.00;;;;;;;22.15;72.61;100209.66;5022595;28;20033;-70
2023/08/07 11:09:06;;;;;;;0.00;0.00;;;;;;;22.06;69.74;100216.31;5024454;28;20508;-69
2023/08/07 11:11:50;;;;;;;0.20;0.00;;;;;;;21.93;66.02;100216.44;5024707;28;20117;-69
2023/08/07 11:14:17;;;;;;;0.00;0.00;;;;;;;21.91;71.01;100217.72;5013562;28;20026;-68
2023/08/07 11:16:44;;;;;;;0.10;0.00;;;;;;;21.93;71.73;100208.50;5019994;28;20434;-69